This is the latest recevied weather packets stored in our database for station/object K9MWD. If no packets are shown the sender has not sent any weather packets the latest 10 day(s).
| Time | Temp. | Humidity | Pressure | Rain* | Wind** | Luminosity | Snow |
|---|---|---|---|---|---|---|---|
| 1777561384 | 16.11° C | 89% | 1015 hPa | 0 mm | - | 46 W/m² | - |
| 1777561079 | 15.56° C | 89% | 1015.1 hPa | 0 mm | - | 45 W/m² | - |
| 1777560775 | 15.56° C | 89% | 1014.7 hPa | 0 mm | - | 62 W/m² | - |
| 1777560472 | 15.56° C | 88% | 1014.6 hPa | 0 mm | - | 50 W/m² | - |
| 1777560170 | 16.11° C | 88% | 1014.6 hPa | 0 mm | - | 47 W/m² | - |
| 1777559867 | 16.11° C | 87% | 1014.6 hPa | 0 mm | - | 39 W/m² | - |
| 1777559562 | 16.11° C | 87% | 1014.7 hPa | 0 mm | - | 38 W/m² | - |
| 1777559260 | 16.11° C | 87% | 1014.6 hPa | 0 mm | - | 39 W/m² | - |
| 1777558955 | 16.11° C | 86% | 1014.2 hPa | 0 mm | - | 52 W/m² | - |
| 1777558651 | 16.11° C | 86% | 1014.2 hPa | 0 mm | - | 47 W/m² | - |
| 1777558347 | 16.11° C | 86% | 1014.1 hPa | 0 mm | - | 43 W/m² | - |
| 1777558044 | 16.11° C | 86% | 1013.8 hPa | 0 mm | - | 46 W/m² | - |
| 1777557740 | 16.11° C | 86% | 1013.6 hPa | 0 mm | - | 53 W/m² | - |
| 1777557437 | 16.11° C | 86% | 1013.9 hPa | 0 mm | - | 50 W/m² | - |
| 1777557134 | 16.11° C | 86% | 1014.1 hPa | 0 mm | - | 41 W/m² | - |
| 1777556829 | 16.11° C | 86% | 1014 hPa | 0 mm | - | 35 W/m² | - |
| 1777556525 | 16.11° C | 86% | 1014 hPa | 0 mm | - | 38 W/m² | - |
| 1777556225 | 16.11° C | 86% | 1013.9 hPa | 0 mm | - | 37 W/m² | - |
| 1777555921 | 16.11° C | 86% | 1013.8 hPa | 0 mm | - | 38 W/m² | - |
| 1777555617 | 16.11° C | 86% | 1013.6 hPa | 0 mm | - | 38 W/m² | - |
| 1777555314 | 16.11° C | 86% | 1014.1 hPa | 0 mm | - | 32 W/m² | - |
| 1777555010 | 16.11° C | 86% | 1013.5 hPa | 0 mm | - | 40 W/m² | - |
| 1777554707 | 16.11° C | 86% | 1013.4 hPa | 0 mm | - | 42 W/m² | - |
| 1777554404 | 16.11° C | 86% | 1013.3 hPa | 0 mm | - | 34 W/m² | - |
| 1777554101 | 16.11° C | 86% | 1013.1 hPa | 0 mm | - | 34 W/m² | - |
* Rain latest hour (hover to see other rain measurements)
** Current wind speed in m/s (hover to see current wind gust speed)